sensor_id;sensor_type;location;lat;lon;timestamp;pressure;altitude;pressure_sealevel;temperature;humidity
12785;BME280;6456;42.680;23.260;2024-03-17T00:00:57;94841.34;;;8.31;100.00
12785;BME280;6456;42.680;23.260;2024-03-17T00:04:02;94796.13;;;7.95;100.00
12785;BME280;6456;42.680;23.260;2024-03-17T00:06:31;94924.50;;;8.71;100.00
12785;BME280;6456;42.680;23.260;2024-03-17T00:08:58;94923.06;;;8.69;100.00
12785;BME280;6456;42.680;23.260;2024-03-17T00:11:28;94916.00;;;8.69;100.00
12785;BME280;6456;42.680;23.260;2024-03-17T00:13:53;94916.19;;;8.68;100.00
12785;BME280;6456;42.680;23.260;2024-03-17T00:16:21;94866.16;;;8.35;100.00
12785;BME280;6456;42.680;23.260;2024-03-17T00:18:47;94899.16;;;8.51;100.00
12785;BME280;6456;42.680;23.260;2024-03-17T00:21:14;94890.06;;;8.47;100.00
12785;BME280;6456;42.680;23.260;2024-03-17T00:23:40;94883.16;;;8.39;100.00
12785;BME280;6456;42.680;23.260;2024-03-17T00:26:07;94917.31;;;8.52;100.00
12785;BME280;6456;42.680;23.260;2024-03-17T00:28:35;94874.56;;;8.24;100.00
12785;BME280;6456;42.680;23.260;2024-03-17T00:31:03;94891.56;;;8.34;100.00
12785;BME280;6456;42.680;23.260;2024-03-17T00:33:29;94905.16;;;8.45;100.00
12785;BME280;6456;42.680;23.260;2024-03-17T00:35:56;94913.84;;;8.45;100.00
12785;BME280;6456;42.680;23.260;2024-03-17T00:38:24;94777.16;;;7.58;100.00
12785;BME280;6456;42.680;23.260;2024-03-17T00:40:50;94898.25;;;8.37;100.00
12785;BME280;6456;42.680;23.260;2024-03-17T00:43:17;94901.28;;;8.34;100.00
12785;BME280;6456;42.680;23.260;2024-03-17T00:45:51;94831.13;;;7.87;100.00
12785;BME280;6456;42.680;23.260;2024-03-17T00:48:18;94915.56;;;8.31;100.00
12785;BME280;6456;42.680;23.260;2024-03-17T00:50:44;94889.16;;;8.12;100.00
12785;BME280;6456;42.680;23.260;2024-03-17T00:53:11;94834.06;;;7.71;100.00
12785;BME280;6456;42.680;23.260;2024-03-17T00:55:38;94891.78;;;8.12;100.00
12785;BME280;6456;42.680;23.260;2024-03-17T00:58:05;94907.75;;;8.17;100.00
12785;BME280;6456;42.680;23.260;2024-03-17T01:00:31;94891.75;;;8.05;100.00
12785;BME280;6456;42.680;23.260;2024-03-17T01:03:00;94839.91;;;7.73;100.00
12785;BME280;6456;42.680;23.260;2024-03-17T01:05:26;94867.19;;;7.85;100.00
12785;BME280;6456;42.680;23.260;2024-03-17T01:07:53;94903.09;;;8.12;100.00
12785;BME280;6456;42.680;23.260;2024-03-17T01:10:19;94787.22;;;7.34;100.00
12785;BME280;6456;42.680;23.260;2024-03-17T01:12:46;94911.16;;;8.11;100.00
12785;BME280;6456;42.680;23.260;2024-03-17T01:15:12;94835.81;;;7.64;100.00
12785;BME280;6456;42.680;23.260;2024-03-17T01:17:39;94825.47;;;7.56;100.00
12785;BME280;6456;42.680;23.260;2024-03-17T01:20:10;94877.63;;;7.79;100.00
12785;BME280;6456;42.680;23.260;2024-03-17T01:22:37;94911.91;;;8.05;100.00
12785;BME280;6456;42.680;23.260;2024-03-17T01:25:03;94916.53;;;8.03;100.00
12785;BME280;6456;42.680;23.260;2024-03-17T01:27:31;94915.91;;;8.01;100.00
12785;BME280;6456;42.680;23.260;2024-03-17T01:29:57;94861.19;;;7.63;100.00
12785;BME280;6456;42.680;23.260;2024-03-17T01:32:25;94836.88;;;7.48;100.00
12785;BME280;6456;42.680;23.260;2024-03-17T01:34:50;94910.06;;;7.99;100.00
12785;BME280;6456;42.680;23.260;2024-03-17T01:37:19;94860.16;;;7.64;100.00
12785;BME280;6456;42.680;23.260;2024-03-17T01:39:45;94906.53;;;7.92;100.00
12785;BME280;6456;42.680;23.260;2024-03-17T01:42:12;94887.09;;;7.80;100.00
12785;BME280;6456;42.680;23.260;2024-03-17T01:44:38;94892.34;;;7.80;100.00
12785;BME280;6456;42.680;23.260;2024-03-17T01:47:05;94906.38;;;7.93;100.00
12785;BME280;6456;42.680;23.260;2024-03-17T01:49:31;94901.63;;;7.82;100.00
12785;BME280;6456;42.680;23.260;2024-03-17T01:51:58;94770.81;;;7.04;100.00
12785;BME280;6456;42.680;23.260;2024-03-17T01:54:26;94903.06;;;7.85;100.00
12785;BME280;6456;42.680;23.260;2024-03-17T01:56:53;94852.59;;;7.48;100.00
12785;BME280;6456;42.680;23.260;2024-03-17T01:59:19;94906.25;;;7.80;100.00
12785;BME280;6456;42.680;23.260;2024-03-17T02:01:47;94865.94;;;7.53;100.00
12785;BME280;6456;42.680;23.260;2024-03-17T02:04:13;94781.03;;;6.99;100.00
12785;BME280;6456;42.680;23.260;2024-03-17T02:06:43;94842.63;;;7.37;100.00
12785;BME280;6456;42.680;23.260;2024-03-17T02:09:09;94886.81;;;7.68;100.00
12785;BME280;6456;42.680;23.260;2024-03-17T02:11:38;94844.84;;;7.40;100.00
12785;BME280;6456;42.680;23.260;2024-03-17T02:14:04;94908.00;;;7.73;100.00
12785;BME280;6456;42.680;23.260;2024-03-17T02:16:33;94807.59;;;7.17;100.00
12785;BME280;6456;42.680;23.260;2024-03-17T02:18:59;94844.25;;;7.38;100.00
12785;BME280;6456;42.680;23.260;2024-03-17T02:21:27;94904.63;;;7.79;100.00
12785;BME280;6456;42.680;23.260;2024-03-17T02:23:55;94825.53;;;7.20;100.00
12785;BME280;6456;42.680;23.260;2024-03-17T02:26:22;94887.38;;;7.63;100.00
12785;BME280;6456;42.680;23.260;2024-03-17T02:28:48;94830.28;;;7.31;100.00
12785;BME280;6456;42.680;23.260;2024-03-17T02:31:17;94912.06;;;7.75;100.00
12785;BME280;6456;42.680;23.260;2024-03-17T02:33:43;94872.78;;;7.54;100.00
12785;BME280;6456;42.680;23.260;2024-03-17T02:36:12;94825.78;;;7.25;100.00
12785;BME280;6456;42.680;23.260;2024-03-17T02:38:39;94841.75;;;7.30;100.00
12785;BME280;6456;42.680;23.260;2024-03-17T02:41:24;94899.84;;;7.61;100.00
12785;BME280;6456;42.680;23.260;2024-03-17T02:43:52;94838.25;;;7.23;100.00
12785;BME280;6456;42.680;23.260;2024-03-17T02:46:19;94829.72;;;7.15;100.00
12785;BME280;6456;42.680;23.260;2024-03-17T02:48:47;94878.41;;;7.51;100.00
12785;BME280;6456;42.680;23.260;2024-03-17T02:51:15;94873.66;;;7.40;100.00
12785;BME280;6456;42.680;23.260;2024-03-17T02:53:43;94884.59;;;7.44;100.00
12785;BME280;6456;42.680;23.260;2024-03-17T02:56:11;94857.75;;;7.21;100.00
12785;BME280;6456;42.680;23.260;2024-03-17T02:58:40;94868.28;;;7.06;100.00
12785;BME280;6456;42.680;23.260;2024-03-17T03:01:07;94900.72;;;7.26;100.00
12785;BME280;6456;42.680;23.260;2024-03-17T03:03:35;94884.50;;;7.16;100.00
12785;BME280;6456;42.680;23.260;2024-03-17T03:06:03;94885.66;;;7.14;100.00
12785;BME280;6456;42.680;23.260;2024-03-17T03:08:34;94826.88;;;6.74;100.00
12785;BME280;6456;42.680;23.260;2024-03-17T03:11:03;94892.97;;;7.18;100.00
12785;BME280;6456;42.680;23.260;2024-03-17T03:13:31;94808.75;;;6.58;100.00
12785;BME280;6456;42.680;23.260;2024-03-17T03:16:00;94865.75;;;6.98;100.00
12785;BME280;6456;42.680;23.260;2024-03-17T03:18:27;94884.84;;;7.13;100.00
12785;BME280;6456;42.680;23.260;2024-03-17T03:20:54;94856.66;;;6.94;100.00
12785;BME280;6456;42.680;23.260;2024-03-17T03:23:21;94839.44;;;6.85;100.00
12785;BME280;6456;42.680;23.260;2024-03-17T03:25:54;94870.63;;;7.01;100.00
12785;BME280;6456;42.680;23.260;2024-03-17T03:28:22;94803.44;;;6.66;100.00
12785;BME280;6456;42.680;23.260;2024-03-17T03:30:50;94877.38;;;7.10;100.00
12785;BME280;6456;42.680;23.260;2024-03-17T03:33:18;94895.31;;;7.13;100.00
12785;BME280;6456;42.680;23.260;2024-03-17T03:35:46;94897.31;;;7.11;100.00
12785;BME280;6456;42.680;23.260;2024-03-17T03:38:14;94842.09;;;6.70;100.00
12785;BME280;6456;42.680;23.260;2024-03-17T03:40:42;94827.69;;;6.60;100.00
12785;BME280;6456;42.680;23.260;2024-03-17T03:43:09;94780.13;;;6.35;100.00
12785;BME280;6456;42.680;23.260;2024-03-17T03:45:36;94855.25;;;6.77;100.00
12785;BME280;6456;42.680;23.260;2024-03-17T03:48:04;94900.03;;;7.03;100.00
12785;BME280;6456;42.680;23.260;2024-03-17T03:50:33;94826.34;;;6.49;100.00
12785;BME280;6456;42.680;23.260;2024-03-17T03:53:00;94847.63;;;6.61;100.00
12785;BME280;6456;42.680;23.260;2024-03-17T03:55:26;94849.97;;;6.56;100.00
12785;BME280;6456;42.680;23.260;2024-03-17T03:57:54;94845.81;;;6.46;100.00
12785;BME280;6456;42.680;23.260;2024-03-17T04:00:21;94833.94;;;6.29;100.00
12785;BME280;6456;42.680;23.260;2024-03-17T04:02:51;94911.72;;;6.86;100.00
12785;BME280;6456;42.680;23.260;2024-03-17T04:05:19;94838.06;;;6.24;100.00
12785;BME280;6456;42.680;23.260;2024-03-17T04:07:48;94908.84;;;6.66;100.00
12785;BME280;6456;42.680;23.260;2024-03-17T04:10:16;94892.88;;;6.32;100.00
12785;BME280;6456;42.680;23.260;2024-03-17T04:12:44;94911.81;;;6.49;100.00
12785;BME280;6456;42.680;23.260;2024-03-17T04:15:11;94864.03;;;6.11;100.00
12785;BME280;6456;42.680;23.260;2024-03-17T04:17:39;94876.72;;;6.14;100.00
12785;BME280;6456;42.680;23.260;2024-03-17T04:20:08;94939.84;;;6.55;100.00
12785;BME280;6456;42.680;23.260;2024-03-17T04:22:38;94915.50;;;6.39;100.00
12785;BME280;6456;42.680;23.260;2024-03-17T04:25:08;94878.00;;;6.18;100.00
12785;BME280;6456;42.680;23.260;2024-03-17T04:27:35;94885.03;;;6.17;100.00
12785;BME280;6456;42.680;23.260;2024-03-17T04:30:02;94916.50;;;6.38;100.00
12785;BME280;6456;42.680;23.260;2024-03-17T04:32:31;94940.47;;;6.57;100.00
12785;BME280;6456;42.680;23.260;2024-03-17T04:34:58;94928.22;;;6.42;100.00
12785;BME280;6456;42.680;23.260;2024-03-17T04:37:25;94955.81;;;6.60;100.00
12785;BME280;6456;42.680;23.260;2024-03-17T04:39:53;94957.78;;;6.58;100.00
12785;BME280;6456;42.680;23.260;2024-03-17T04:42:24;94955.53;;;6.55;100.00
12785;BME280;6456;42.680;23.260;2024-03-17T04:44:51;94946.06;;;6.54;100.00
12785;BME280;6456;42.680;23.260;2024-03-17T04:47:18;94879.31;;;5.99;100.00
12785;BME280;6456;42.680;23.260;2024-03-17T04:49:45;94881.16;;;6.13;100.00
12785;BME280;6456;42.680;23.260;2024-03-17T04:52:13;94920.44;;;6.34;100.00
12785;BME280;6456;42.680;23.260;2024-03-17T04:54:42;94903.88;;;6.27;100.00
12785;BME280;6456;42.680;23.260;2024-03-17T04:57:09;94954.34;;;6.57;100.00
12785;BME280;6456;42.680;23.260;2024-03-17T04:59:38;94953.72;;;6.55;100.00
12785;BME280;6456;42.680;23.260;2024-03-17T05:02:05;94970.44;;;6.69;100.00
12785;BME280;6456;42.680;23.260;2024-03-17T05:04:33;94952.22;;;6.61;100.00
12785;BME280;6456;42.680;23.260;2024-03-17T05:07:00;94984.69;;;6.81;100.00
12785;BME280;6456;42.680;23.260;2024-03-17T05:09:27;94941.28;;;6.57;100.00
12785;BME280;6456;42.680;23.260;2024-03-17T05:11:54;94954.28;;;6.65;100.00
12785;BME280;6456;42.680;23.260;2024-03-17T05:14:21;94921.00;;;6.44;100.00
12785;BME280;6456;42.680;23.260;2024-03-17T05:16:51;94969.69;;;6.89;100.00
12785;BME280;6456;42.680;23.260;2024-03-17T05:19:18;94998.72;;;7.09;100.00
12785;BME280;6456;42.680;23.260;2024-03-17T05:21:45;94976.47;;;6.98;100.00
12785;BME280;6456;42.680;23.260;2024-03-17T05:24:12;94996.47;;;7.21;100.00
12785;BME280;6456;42.680;23.260;2024-03-17T05:26:39;94927.94;;;6.81;100.00
12785;BME280;6456;42.680;23.260;2024-03-17T05:29:07;94999.16;;;7.27;100.00
12785;BME280;6456;42.680;23.260;2024-03-17T05:31:34;94924.78;;;6.86;100.00
12785;BME280;6456;42.680;23.260;2024-03-17T05:34:03;95003.19;;;7.44;100.00
12785;BME280;6456;42.680;23.260;2024-03-17T05:36:30;94917.56;;;6.88;100.00
12785;BME280;6456;42.680;23.260;2024-03-17T05:38:59;94929.81;;;7.02;100.00
12785;BME280;6456;42.680;23.260;2024-03-17T05:41:26;94992.19;;;7.49;100.00
12785;BME280;6456;42.680;23.260;2024-03-17T05:43:53;94989.38;;;7.50;100.00
12785;BME280;6456;42.680;23.260;2024-03-17T05:46:24;94983.00;;;7.59;100.00
12785;BME280;6456;42.680;23.260;2024-03-17T05:48:51;94953.44;;;7.44;100.00
12785;BME280;6456;42.680;23.260;2024-03-17T05:51:20;94943.78;;;7.45;100.00
12785;BME280;6456;42.680;23.260;2024-03-17T05:53:47;94995.81;;;7.90;100.00
12785;BME280;6456;42.680;23.260;2024-03-17T05:56:14;94995.88;;;7.97;100.00
12785;BME280;6456;42.680;23.260;2024-03-17T05:58:42;94978.31;;;7.91;100.00
12785;BME280;6456;42.680;23.260;2024-03-17T06:01:22;94993.03;;;8.13;100.00
12785;BME280;6456;42.680;23.260;2024-03-17T06:03:49;94953.28;;;7.88;100.00
12785;BME280;6456;42.680;23.260;2024-03-17T06:06:16;95006.06;;;8.27;100.00
12785;BME280;6456;42.680;23.260;2024-03-17T06:08:45;94891.84;;;7.69;100.00
12785;BME280;6456;42.680;23.260;2024-03-17T06:11:12;94935.38;;;7.92;100.00
12785;BME280;6456;42.680;23.260;2024-03-17T06:13:39;94928.81;;;8.02;100.00
12785;BME280;6456;42.680;23.260;2024-03-17T06:16:06;95007.88;;;8.48;100.00
12785;BME280;6456;42.680;23.260;2024-03-17T06:18:34;94924.78;;;7.79;100.00
12785;BME280;6456;42.680;23.260;2024-03-17T06:21:04;95029.19;;;8.38;100.00
12785;BME280;6456;42.680;23.260;2024-03-17T06:23:31;94961.31;;;8.08;100.00
12785;BME280;6456;42.680;23.260;2024-03-17T06:26:00;94966.75;;;8.06;100.00
12785;BME280;6456;42.680;23.260;2024-03-17T06:28:28;95018.31;;;8.42;100.00
12785;BME280;6456;42.680;23.260;2024-03-17T06:30:56;94936.13;;;7.86;100.00
12785;BME280;6456;42.680;23.260;2024-03-17T06:33:26;94986.13;;;8.26;100.00
12785;BME280;6456;42.680;23.260;2024-03-17T06:38:26;95011.44;;;8.41;100.00
12785;BME280;6456;42.680;23.260;2024-03-17T06:40:52;95014.63;;;8.36;100.00
12785;BME280;6456;42.680;23.260;2024-03-17T06:43:29;95038.63;;;8.61;100.00
12785;BME280;6456;42.680;23.260;2024-03-17T06:46:01;95041.91;;;8.69;100.00
12785;BME280;6456;42.680;23.260;2024-03-17T06:48:29;95036.75;;;8.82;100.00
12785;BME280;6456;42.680;23.260;2024-03-17T06:50:56;94997.97;;;8.71;100.00
12785;BME280;6456;42.680;23.260;2024-03-17T06:53:24;95009.41;;;8.91;100.00
12785;BME280;6456;42.680;23.260;2024-03-17T06:55:55;95034.00;;;9.25;100.00
12785;BME280;6456;42.680;23.260;2024-03-17T06:58:24;95031.28;;;9.46;100.00
12785;BME280;6456;42.680;23.260;2024-03-17T07:00:53;95036.38;;;9.54;100.00
12785;BME280;6456;42.680;23.260;2024-03-17T07:03:23;95038.84;;;9.68;100.00
12785;BME280;6456;42.680;23.260;2024-03-17T07:05:54;95014.81;;;9.72;100.00
12785;BME280;6456;42.680;23.260;2024-03-17T07:08:21;95038.13;;;9.94;100.00
12785;BME280;6456;42.680;23.260;2024-03-17T07:10:56;95012.25;;;9.91;100.00
12785;BME280;6456;42.680;23.260;2024-03-17T07:13:25;95020.91;;;9.85;100.00
12785;BME280;6456;42.680;23.260;2024-03-17T07:15:54;94999.25;;;9.70;100.00
12785;BME280;6456;42.680;23.260;2024-03-17T07:18:22;95035.91;;;9.98;100.00
12785;BME280;6456;42.680;23.260;2024-03-17T07:20:49;94962.44;;;9.70;100.00
12785;BME280;6456;42.680;23.260;2024-03-17T07:23:16;95041.09;;;10.32;100.00
12785;BME280;6456;42.680;23.260;2024-03-17T07:25:51;95049.59;;;10.54;100.00
12785;BME280;6456;42.680;23.260;2024-03-17T07:28:19;95011.97;;;10.47;100.00
12785;BME280;6456;42.680;23.260;2024-03-17T07:30:48;94939.72;;;10.16;99.65
12785;BME280;6456;42.680;23.260;2024-03-17T07:33:16;95017.19;;;10.73;99.56
12785;BME280;6456;42.680;23.260;2024-03-17T07:35:49;94973.09;;;10.49;97.27
12785;BME280;6456;42.680;23.260;2024-03-17T07:38:17;94964.19;;;10.30;96.39
12785;BME280;6456;42.680;23.260;2024-03-17T07:40:45;95042.91;;;10.84;96.63
12785;BME280;6456;42.680;23.260;2024-03-17T07:43:12;95010.13;;;10.54;97.39
12785;BME280;6456;42.680;23.260;2024-03-17T07:45:40;94952.25;;;10.27;96.65
12785;BME280;6456;42.680;23.260;2024-03-17T07:48:16;94943.94;;;10.17;96.87
12785;BME280;6456;42.680;23.260;2024-03-17T07:50:43;94936.25;;;10.09;97.42
12785;BME280;6456;42.680;23.260;2024-03-17T07:53:35;94935.25;;;10.23;98.63
12785;BME280;6456;42.680;23.260;2024-03-17T07:56:16;94959.53;;;10.39;97.37
12785;BME280;6456;42.680;23.260;2024-03-17T07:58:48;95055.25;;;10.97;96.48
12785;BME280;6456;42.680;23.260;2024-03-17T08:01:22;95037.44;;;10.72;96.97
12785;BME280;6456;42.680;23.260;2024-03-17T08:07:28;95028.94;;;10.83;96.01
12785;BME280;6456;42.680;23.260;2024-03-17T08:09:58;94986.03;;;10.44;95.15
12785;BME280;6456;42.680;23.260;2024-03-17T08:12:28;94930.59;;;10.19;95.61
12785;BME280;6456;42.680;23.260;2024-03-17T08:14:55;94940.31;;;10.18;95.71
12785;BME280;6456;42.680;23.260;2024-03-17T08:17:23;94958.13;;;10.29;95.78
12785;BME280;6456;42.680;23.260;2024-03-17T08:19:50;95051.22;;;10.81;96.76
12785;BME280;6456;42.680;23.260;2024-03-17T08:22:17;94922.91;;;10.04;96.60
12785;BME280;6456;42.680;23.260;2024-03-17T08:24:46;95035.03;;;10.84;95.89
12785;BME280;6456;42.680;23.260;2024-03-17T08:27:14;94934.44;;;10.23;96.48
12785;BME280;6456;42.680;23.260;2024-03-17T08:29:41;95044.31;;;11.06;95.38
12785;BME280;6456;42.680;23.260;2024-03-17T08:32:08;94969.03;;;10.59;93.87
12785;BME280;6456;42.680;23.260;2024-03-17T08:34:35;94921.50;;;10.41;96.78
12785;BME280;6456;42.680;23.260;2024-03-17T08:37:02;95019.16;;;11.10;95.66
12785;BME280;6456;42.680;23.260;2024-03-17T08:39:30;95043.88;;;11.29;94.62
12785;BME280;6456;42.680;23.260;2024-03-17T08:41:59;94990.41;;;11.15;92.69
12785;BME280;6456;42.680;23.260;2024-03-17T08:44:26;94983.91;;;11.24;92.54
12785;BME280;6456;42.680;23.260;2024-03-17T08:46:53;95037.72;;;11.54;92.15
12785;BME280;6456;42.680;23.260;2024-03-17T08:49:20;94938.56;;;11.09;90.87
12785;BME280;6456;42.680;23.260;2024-03-17T08:51:47;94953.06;;;11.31;89.63
12785;BME280;6456;42.680;23.260;2024-03-17T08:54:14;94906.13;;;11.15;88.72
12785;BME280;6456;42.680;23.260;2024-03-17T08:56:42;94987.59;;;11.74;88.65
12785;BME280;6456;42.680;23.260;2024-03-17T08:59:11;94971.94;;;11.79;88.08
12785;BME280;6456;42.680;23.260;2024-03-17T09:01:43;94903.91;;;11.50;87.90
12785;BME280;6456;42.680;23.260;2024-03-17T09:04:13;94906.38;;;11.51;86.95
12785;BME280;6456;42.680;23.260;2024-03-17T09:06:40;94980.50;;;12.06;86.86
12785;BME280;6456;42.680;23.260;2024-03-17T09:09:07;94920.63;;;11.75;86.75
12785;BME280;6456;42.680;23.260;2024-03-17T09:11:35;94891.69;;;11.69;86.61
12785;BME280;6456;42.680;23.260;2024-03-17T09:14:02;94911.91;;;11.81;86.13
12785;BME280;6456;42.680;23.260;2024-03-17T09:16:30;94910.50;;;11.79;83.03
12785;BME280;6456;42.680;23.260;2024-03-17T09:18:57;94996.41;;;12.24;85.15
12785;BME280;6456;42.680;23.260;2024-03-17T09:21:25;94908.50;;;11.68;84.80
12785;BME280;6456;42.680;23.260;2024-03-17T09:23:52;94945.50;;;11.92;83.91
12785;BME280;6456;42.680;23.260;2024-03-17T09:26:19;94966.31;;;12.00;81.36
12785;BME280;6456;42.680;23.260;2024-03-17T09:28:50;95003.59;;;12.42;81.66
12785;BME280;6456;42.680;23.260;2024-03-17T09:31:17;94990.09;;;12.56;81.41
12785;BME280;6456;42.680;23.260;2024-03-17T09:33:50;94920.59;;;12.13;83.55
12785;BME280;6456;42.680;23.260;2024-03-17T09:36:17;94973.81;;;12.59;78.94
12785;BME280;6456;42.680;23.260;2024-03-17T09:38:44;94946.34;;;12.67;78.19
12785;BME280;6456;42.680;23.260;2024-03-17T09:41:20;94987.59;;;13.11;74.12
12785;BME280;6456;42.680;23.260;2024-03-17T09:43:50;94946.78;;;13.25;70.75
12785;BME280;6456;42.680;23.260;2024-03-17T09:46:19;94878.09;;;13.07;65.10
12785;BME280;6456;42.680;23.260;2024-03-17T09:48:48;94941.78;;;13.83;65.56
12785;BME280;6456;42.680;23.260;2024-03-17T09:51:18;94868.78;;;13.52;67.15
12785;BME280;6456;42.680;23.260;2024-03-17T09:53:45;94943.28;;;14.20;67.59
12785;BME280;6456;42.680;23.260;2024-03-17T09:56:15;94867.94;;;13.70;59.14
12785;BME280;6456;42.680;23.260;2024-03-17T09:58:44;94917.34;;;13.99;58.35
12785;BME280;6456;42.680;23.260;2024-03-17T10:01:12;94948.38;;;13.92;58.69
12785;BME280;6456;42.680;23.260;2024-03-17T10:03:43;94945.69;;;14.22;59.45
12785;BME280;6456;42.680;23.260;2024-03-17T10:06:13;94933.59;;;14.14;64.40
12785;BME280;6456;42.680;23.260;2024-03-17T10:08:47;94931.91;;;14.20;63.46
12785;BME280;6456;42.680;23.260;2024-03-17T10:11:33;94936.50;;;14.24;62.91
12785;BME280;6456;42.680;23.260;2024-03-17T10:14:02;94963.09;;;14.18;63.63
12785;BME280;6456;42.680;23.260;2024-03-17T10:16:31;94971.03;;;14.18;62.94
12785;BME280;6456;42.680;23.260;2024-03-17T10:19:06;94949.09;;;13.99;62.18
12785;BME280;6456;42.680;23.260;2024-03-17T10:21:37;94970.69;;;14.26;60.90
12785;BME280;6456;42.680;23.260;2024-03-17T10:24:06;94937.00;;;13.91;59.50
12785;BME280;6456;42.680;23.260;2024-03-17T10:26:37;94953.66;;;14.22;60.76
12785;BME280;6456;42.680;23.260;2024-03-17T10:29:05;94953.28;;;14.18;61.38
12785;BME280;6456;42.680;23.260;2024-03-17T10:31:32;94957.06;;;14.40;59.10
12785;BME280;6456;42.680;23.260;2024-03-17T10:34:05;94947.94;;;14.36;59.53
12785;BME280;6456;42.680;23.260;2024-03-17T10:36:33;94910.41;;;14.28;57.80
12785;BME280;6456;42.680;23.260;2024-03-17T10:39:01;94915.28;;;14.54;58.69
12785;BME280;6456;42.680;23.260;2024-03-17T10:41:29;94957.47;;;14.90;58.80
12785;BME280;6456;42.680;23.260;2024-03-17T10:43:59;94882.94;;;14.40;57.55
12785;BME280;6456;42.680;23.260;2024-03-17T10:46:29;94920.78;;;14.41;61.20
12785;BME280;6456;42.680;23.260;2024-03-17T10:49:08;94903.03;;;14.30;61.26
12785;BME280;6456;42.680;23.260;2024-03-17T10:51:50;94964.00;;;14.76;61.86
12785;BME280;6456;42.680;23.260;2024-03-17T10:55:08;94862.22;;;14.37;62.29
12785;BME280;6456;42.680;23.260;2024-03-17T10:57:55;94912.28;;;14.97;58.64
12785;BME280;6456;42.680;23.260;2024-03-17T11:00:50;94939.91;;;15.24;57.84
12785;BME280;6456;42.680;23.260;2024-03-17T11:03:18;94933.53;;;15.36;59.01
12785;BME280;6456;42.680;23.260;2024-03-17T11:05:48;94874.34;;;15.19;56.95
12785;BME280;6456;42.680;23.260;2024-03-17T11:08:17;94944.50;;;15.52;56.72
12785;BME280;6456;42.680;23.260;2024-03-17T11:10:51;94928.00;;;15.50;55.54
12785;BME280;6456;42.680;23.260;2024-03-17T11:13:23;94892.16;;;15.35;55.13
12785;BME280;6456;42.680;23.260;2024-03-17T11:15:51;94891.06;;;15.08;54.45
12785;BME280;6456;42.680;23.260;2024-03-17T11:18:31;94943.81;;;15.21;53.39
12785;BME280;6456;42.680;23.260;2024-03-17T11:21:00;94924.03;;;15.01;50.77
12785;BME280;6456;42.680;23.260;2024-03-17T11:23:34;94844.47;;;14.49;49.46
12785;BME280;6456;42.680;23.260;2024-03-17T11:26:05;94890.50;;;14.83;50.20
12785;BME280;6456;42.680;23.260;2024-03-17T11:28:46;94900.19;;;14.89;49.42
12785;BME280;6456;42.680;23.260;2024-03-17T11:31:39;94927.38;;;14.85;49.35
12785;BME280;6456;42.680;23.260;2024-03-17T11:34:28;94921.50;;;14.94;50.18
12785;BME280;6456;42.680;23.260;2024-03-17T11:36:57;94905.38;;;14.84;50.28
12785;BME280;6456;42.680;23.260;2024-03-17T11:39:50;94928.53;;;15.00;49.49
12785;BME280;6456;42.680;23.260;2024-03-17T11:42:23;94907.09;;;15.02;49.62
12785;BME280;6456;42.680;23.260;2024-03-17T11:45:05;94917.88;;;15.23;47.97
12785;BME280;6456;42.680;23.260;2024-03-17T11:47:39;94908.59;;;15.09;48.05
12785;BME280;6456;42.680;23.260;2024-03-17T11:50:08;94910.06;;;15.17;48.41
12785;BME280;6456;42.680;23.260;2024-03-17T11:52:36;94908.44;;;15.16;49.09
12785;BME280;6456;42.680;23.260;2024-03-17T11:55:04;94859.44;;;14.67;49.06
12785;BME280;6456;42.680;23.260;2024-03-17T11:57:32;94869.69;;;14.52;48.44
12785;BME280;6456;42.680;23.260;2024-03-17T12:00:00;94874.75;;;14.42;49.07
12785;BME280;6456;42.680;23.260;2024-03-17T12:02:29;94853.00;;;14.40;49.43
12785;BME280;6456;42.680;23.260;2024-03-17T12:04:58;94877.19;;;14.66;49.05
12785;BME280;6456;42.680;23.260;2024-03-17T12:07:24;94806.72;;;14.31;51.54
12785;BME280;6456;42.680;23.260;2024-03-17T12:09:54;94857.38;;;14.57;50.43
12785;BME280;6456;42.680;23.260;2024-03-17T12:12:23;94863.94;;;14.55;49.46
12785;BME280;6456;42.680;23.260;2024-03-17T12:15:01;94918.06;;;14.82;52.47
12785;BME280;6456;42.680;23.260;2024-03-17T12:17:28;94864.16;;;14.42;52.87
12785;BME280;6456;42.680;23.260;2024-03-17T12:19:55;94844.81;;;14.30;54.04
12785;BME280;6456;42.680;23.260;2024-03-17T12:22:22;94914.25;;;14.78;54.81
12785;BME280;6456;42.680;23.260;2024-03-17T12:24:52;94913.78;;;14.81;57.44
12785;BME280;6456;42.680;23.260;2024-03-17T12:27:20;94859.19;;;14.68;57.44
12785;BME280;6456;42.680;23.260;2024-03-17T12:29:49;94877.97;;;14.44;57.76
12785;BME280;6456;42.680;23.260;2024-03-17T12:32:17;94807.28;;;14.09;59.01
12785;BME280;6456;42.680;23.260;2024-03-17T12:34:47;94909.06;;;14.83;59.18
12785;BME280;6456;42.680;23.260;2024-03-17T12:37:16;94921.03;;;14.86;59.67
12785;BME280;6456;42.680;23.260;2024-03-17T12:39:45;94916.09;;;14.77;60.40
12785;BME280;6456;42.680;23.260;2024-03-17T12:42:16;94849.31;;;14.41;60.51
12785;BME280;6456;42.680;23.260;2024-03-17T12:44:48;94800.97;;;14.34;59.05
12785;BME280;6456;42.680;23.260;2024-03-17T12:47:18;94875.66;;;14.82;60.30
12785;BME280;6456;42.680;23.260;2024-03-17T12:49:50;94799.00;;;14.41;62.71
12785;BME280;6456;42.680;23.260;2024-03-17T12:52:19;94799.00;;;14.29;64.53
12785;BME280;6456;42.680;23.260;2024-03-17T12:54:57;94889.00;;;14.99;64.22
12785;BME280;6456;42.680;23.260;2024-03-17T12:57:38;94887.97;;;14.88;63.98
12785;BME280;6456;42.680;23.260;2024-03-17T13:00:23;94888.91;;;14.94;63.76
12785;BME280;6456;42.680;23.260;2024-03-17T13:03:02;94864.03;;;14.83;63.70
12785;BME280;6456;42.680;23.260;2024-03-17T13:05:48;94780.25;;;14.19;64.13
12785;BME280;6456;42.680;23.260;2024-03-17T13:08:15;94892.47;;;14.76;64.20
12785;BME280;6456;42.680;23.260;2024-03-17T13:10:43;94880.41;;;14.57;66.36
12785;BME280;6456;42.680;23.260;2024-03-17T13:13:12;94842.31;;;14.35;65.14
12785;BME280;6456;42.680;23.260;2024-03-17T13:15:43;94825.31;;;14.01;66.47
12785;BME280;6456;42.680;23.260;2024-03-17T13:18:16;94830.28;;;14.21;67.58